Time;durP1;ratioP1;P1;durP2;ratioP2;P2;SDS_P1;SDS_P2;PMS_P1;PMS_P2;Temp;Humidity;BMP_temperature;BMP_pressure;BME280_temperature;BME280_humidity;BME280_pressure;Samples;Min_cycle;Max_cycle;Signal;HPM_P1;HPM_P2
2021/12/11 00:00:57;;;;;;;;;3.20;1.60;;;;;6.09;65.44;100466.63;5011664;28;45372;-49
2021/12/11 00:03:28;;;;;;;;;1.00;1.00;;;;;5.90;66.31;100424.44;5015205;28;45374;-53
2021/12/11 00:05:59;;;;;;;;;3.80;3.80;;;;;6.10;65.62;100468.31;5015824;28;45446;-50
2021/12/11 00:08:27;;;;;;;;;5.40;2.00;;;;;6.03;65.68;100452.94;4997311;28;49242;-51
2021/12/11 00:11:08;;;;;;;;;4.40;0.60;;;;;6.11;66.50;100477.34;4997921;28;45494;-52
2021/12/11 00:13:36;;;;;;;;;1.80;1.00;;;;;6.12;65.61;100480.94;5015119;28;45449;-55
2021/12/11 00:16:02;;;;;;;;;5.00;5.00;;;;;6.12;66.18;100492.66;5015486;28;45374;-53
2021/12/11 00:18:29;;;;;;;;;3.20;3.20;;;;;6.12;65.89;100489.94;5014880;28;46166;-54
2021/12/11 00:21:04;;;;;;;;;5.40;2.00;;;;;6.08;66.14;100507.69;5014997;28;45342;-51
2021/12/11 00:23:40;;;;;;;;;4.00;1.00;;;;;5.89;65.63;100469.06;4997377;28;45416;-54
2021/12/11 00:26:07;;;;;;;;;2.80;2.00;;;;;6.09;66.23;100507.50;4997625;28;45178;-51
2021/12/11 00:28:33;;;;;;;;;5.40;2.00;;;;;6.05;66.15;100508.09;5014650;28;46244;-49
2021/12/11 00:30:59;;;;;;;;;3.25;3.25;;;;;5.91;66.28;100486.06;4996842;28;45367;-51
2021/12/11 00:33:31;;;;;;;;;2.75;2.50;;;;;5.88;66.65;100485.59;4996987;28;45323;-51
2021/12/11 00:35:57;;;;;;;;;6.80;4.40;;;;;6.06;66.23;100509.78;4998096;28;45341;-54
2021/12/11 00:38:24;;;;;;;;;3.25;3.25;;;;;6.06;66.17;100516.06;5014438;28;45918;-53
2021/12/11 00:40:51;;;;;;;;;4.80;3.60;;;;;6.08;66.00;100527.63;5015188;28;45943;-50
2021/12/11 00:43:20;;;;;;;;;3.20;1.20;;;;;6.08;65.64;100530.34;5014524;28;45398;-50
2021/12/11 00:45:47;;;;;;;;;4.40;3.80;;;;;5.93;66.32;100540.38;5014869;28;45497;-52
2021/12/11 00:48:24;;;;;;;;;5.00;3.80;;;;;5.95;66.66;100536.44;4996513;28;47975;-55
2021/12/11 00:50:52;;;;;;;;;5.80;3.80;;;;;5.76;66.18;100521.47;5015064;28;45981;-56
2021/12/11 00:53:37;;;;;;;;;7.20;3.40;;;;;5.93;66.31;100551.28;4997340;28;45425;-54
2021/12/11 00:56:22;;;;;;;;;6.20;5.00;;;;;5.92;66.59;100560.47;5015068;28;45474;-54
2021/12/11 00:58:50;;;;;;;;;3.60;3.60;;;;;5.87;66.34;100561.00;5014182;28;46346;-51
2021/12/11 01:01:25;;;;;;;;;3.80;3.80;;;;;5.87;67.16;100565.63;5014563;28;45256;-49
2021/12/11 01:03:53;;;;;;;;;3.80;2.40;;;;;5.88;66.52;100568.19;5015000;28;45271;-51
2021/12/11 01:06:25;;;;;;;;;5.00;2.00;;;;;5.71;66.96;100542.94;5014972;28;45481;-53
2021/12/11 01:08:58;;;;;;;;;3.80;3.80;;;;;5.87;67.32;100579.25;5014455;28;45547;-50
2021/12/11 01:11:29;;;;;;;;;2.40;2.40;;;;;5.87;67.23;100584.69;4996437;28;45513;-54
2021/12/11 01:14:22;;;;;;;;;0.80;0.80;;;;;5.83;66.34;100576.88;5014417;28;45443;-49
2021/12/11 01:17:04;;;;;;;;;6.00;5.00;;;;;5.79;67.41;100586.47;5015000;28;45405;-53
2021/12/11 01:19:36;;;;;;;;;3.80;3.60;;;;;5.79;66.44;100596.50;5014149;28;46190;-50
2021/12/11 01:22:09;;;;;;;;;1.40;1.40;;;;;5.37;66.22;100536.09;4997706;28;45922;-53
2021/12/11 01:24:45;;;;;;;;;5.20;3.20;;;;;5.77;67.13;100610.28;5016754;28;45397;-50
2021/12/11 01:27:15;;;;;;;;;5.40;4.20;;;;;5.76;67.36;100616.78;5018212;28;45302;-51
2021/12/11 01:29:41;;;;;;;;;1.40;1.40;;;;;5.68;67.41;100609.53;5017402;28;45754;-51
2021/12/11 01:32:07;;;;;;;;;6.80;2.40;;;;;5.76;67.32;100627.69;5018028;28;45357;-50
2021/12/11 01:34:34;;;;;;;;;2.00;1.40;;;;;5.73;66.80;100614.44;5017772;28;45232;-47
2021/12/11 01:36:59;;;;;;;;;3.20;3.20;;;;;5.42;66.90;100578.09;4994313;28;45573;-50
2021/12/11 01:39:28;;;;;;;;;5.75;2.00;;;;;5.72;66.68;100650.00;4999245;28;45490;-55
2021/12/11 01:41:54;;;;;;;;;5.00;1.60;;;;;5.64;66.84;100627.25;5015906;28;45330;-54
2021/12/11 01:44:26;;;;;;;;;7.00;5.40;;;;;5.64;66.38;100634.56;5000058;28;45388;-52
2021/12/11 01:47:02;;;;;;;;;1.20;1.20;;;;;5.62;67.75;100639.38;5017885;28;46020;-48
2021/12/11 01:49:29;;;;;;;;;1.80;0.60;;;;;5.62;66.84;100644.81;5017443;28;45712;-54
2021/12/11 01:51:59;;;;;;;;;1.40;1.40;;;;;5.67;66.93;100653.28;5017309;28;45457;-49
2021/12/11 01:54:34;;;;;;;;;2.80;2.80;;;;;5.51;66.88;100627.84;5017923;28;45411;-50
2021/12/11 01:57:03;;;;;;;;;3.80;3.80;;;;;5.70;67.15;100658.38;5017399;28;45592;-47
2021/12/11 01:59:34;;;;;;;;;1.40;1.40;;;;;5.67;67.28;100645.13;5017208;28;46431;-47
2021/12/11 02:02:03;;;;;;;;;2.40;2.40;;;;;5.63;67.24;100655.53;5017550;28;45372;-53
2021/12/11 02:04:31;;;;;;;;;4.60;2.80;;;;;5.64;66.73;100661.81;5017180;28;45438;-53
2021/12/11 02:06:59;;;;;;;;;2.20;2.20;;;;;5.63;67.89;100665.56;4999348;28;45400;-52
2021/12/11 02:09:27;;;;;;;;;5.40;4.60;;;;;5.63;66.70;100674.59;4999234;28;45777;-48
2021/12/11 02:12:09;;;;;;;;;6.00;4.00;;;;;5.64;67.37;100678.16;4999573;28;45913;-55
2021/12/11 02:14:40;;;;;;;;;2.20;2.20;;;;;5.64;66.63;100678.16;5016908;28;45394;-50
2021/12/11 02:17:06;;;;;;;;;5.20;4.20;;;;;5.63;68.11;100685.50;5000205;28;45492;-54
2021/12/11 02:19:33;;;;;;;;;5.25;3.25;;;;;5.64;67.83;100684.44;5016051;28;45704;-54
2021/12/11 02:22:01;;;;;;;;;8.40;4.60;;;;;5.64;67.56;100686.31;5016743;28;45672;-48
2021/12/11 02:24:39;;;;;;;;;4.60;2.20;;;;;5.63;67.46;100701.81;5016838;28;45386;-53
2021/12/11 02:27:19;;;;;;;;;8.80;4.00;;;;;5.62;67.69;100699.28;5016856;28;45323;-54
2021/12/11 02:29:49;;;;;;;;;3.40;1.60;;;;;5.61;67.59;100705.75;5016457;28;47598;-54
2021/12/11 02:32:30;;;;;;;;;3.80;3.80;;;;;5.61;67.54;100705.75;5016547;28;45343;-53
2021/12/11 02:35:09;;;;;;;;;1.80;1.80;;;;;5.60;67.52;100707.63;5015703;28;45288;-51
2021/12/11 02:37:41;;;;;;;;;2.80;2.00;;;;;5.60;67.30;100721.22;4999075;28;45607;-56
2021/12/11 02:40:37;;;;;;;;;2.00;0.00;;;;;5.57;67.84;100714.25;5016298;28;45372;-50
2021/12/11 02:43:11;;;;;;;;;4.00;1.80;;;;;5.17;67.69;100650.88;4998587;28;45541;-50
2021/12/11 02:45:43;;;;;;;;;3.60;3.20;;;;;5.32;67.50;100680.91;5014952;28;45396;-50
2021/12/11 02:48:12;;;;;;;;;4.40;1.80;;;;;5.43;67.75;100701.41;4999395;28;45230;-54
2021/12/11 02:50:41;;;;;;;;;3.40;2.00;;;;;5.51;67.51;100714.16;4998262;28;46917;-53
2021/12/11 02:53:23;;;;;;;;;6.80;3.80;;;;;5.50;68.55;100718.72;4998353;28;45381;-52
2021/12/11 02:55:51;;;;;;;;;1.00;1.00;;;;;5.50;67.82;100721.47;5016175;28;45688;-54
2021/12/11 02:58:24;;;;;;;;;3.00;2.80;;;;;5.48;67.87;100726.25;5016472;28;45345;-54
2021/12/11 03:00:57;;;;;;;;;3.40;1.00;;;;;5.51;68.44;100731.31;5001478;28;46162;-52
2021/12/11 03:03:33;;;;;;;;;4.40;2.00;;;;;5.48;68.28;100736.28;5014316;28;45389;-48
2021/12/11 03:06:11;;;;;;;;;7.20;2.00;;;;;5.47;68.26;100745.47;5015569;28;45373;-59
2021/12/11 03:08:36;;;;;;;;;5.20;4.00;;;;;5.48;68.32;100739.00;5014861;28;45378;-48
2021/12/11 03:11:05;;;;;;;;;2.50;2.50;;;;;5.40;68.54;100740.72;5015958;28;46046;-51
2021/12/11 03:13:33;;;;;;;;;4.40;2.80;;;;;5.26;67.62;100717.00;5014266;28;45325;-50
2021/12/11 03:15:59;;;;;;;;;4.20;1.20;;;;;5.48;68.69;100758.91;4995907;28;45484;-51
2021/12/11 03:18:25;;;;;;;;;4.25;4.25;;;;;5.45;67.80;100756.56;5014214;28;45306;-50
2021/12/11 03:20:50;;;;;;;;;4.75;1.00;;;;;5.15;68.21;100708.22;5014929;28;46550;-50
2021/12/11 03:23:16;;;;;;;;;2.75;1.75;;;;;5.01;68.28;100693.47;4997603;28;45431;-53
2021/12/11 03:25:42;;;;;;;;;1.25;0.75;;;;;5.47;68.18;100776.28;5015283;28;45374;-52
2021/12/11 03:28:10;;;;;;;;;8.40;4.20;;;;;5.49;68.70;100782.38;5016355;28;45484;-52
2021/12/11 03:30:43;;;;;;;;;1.00;1.00;;;;;5.44;68.30;100782.06;5015561;28;46772;-54
2021/12/11 03:33:13;;;;;;;;;1.00;0.80;;;;;5.44;68.53;100784.78;5015915;28;45421;-52
2021/12/11 03:35:39;;;;;;;;;2.00;1.00;;;;;5.45;68.74;100786.50;5015744;28;45384;-50
2021/12/11 03:38:05;;;;;;;;;1.75;1.75;;;;;5.45;67.91;100786.50;5016015;28;45330;-53
2021/12/11 03:40:31;;;;;;;;;1.00;1.00;;;;;5.54;68.01;100803.63;5015574;28;46107;-51
2021/12/11 03:42:57;;;;;;;;;1.00;1.00;;;;;5.60;68.42;100799.38;5015539;28;45287;-52
2021/12/11 03:45:26;;;;;;;;;1.00;0.80;;;;;5.47;68.86;100784.44;4997901;28;45390;-53
2021/12/11 03:47:56;;;;;;;;;4.00;3.60;;;;;5.55;68.24;100792.56;5015314;28;45390;-48
2021/12/11 03:50:22;;;;;;;;;3.20;3.20;;;;;5.65;68.29;100816.03;5015508;28;45426;-50
2021/12/11 03:52:48;;;;;;;;;1.00;1.00;;;;;5.48;68.04;100788.00;5015652;28;45180;-50
2021/12/11 03:55:15;;;;;;;;;1.40;1.00;;;;;5.72;67.54;100830.63;5015229;28;45284;-51
2021/12/11 03:57:42;;;;;;;;;5.40;1.60;;;;;5.74;67.96;100828.56;5015328;28;45365;-53
2021/12/11 04:00:10;;;;;;;;;4.00;1.00;;;;;5.70;67.62;100824.50;4997460;28;47950;-50
2021/12/11 04:02:36;;;;;;;;;1.00;1.00;;;;;5.70;68.47;100829.94;5015767;28;45493;-50
2021/12/11 04:05:05;;;;;;;;;2.00;2.00;;;;;5.65;67.87;100829.66;5015549;28;45387;-48
2021/12/11 04:07:36;;;;;;;;;2.00;1.00;;;;;5.53;67.66;100805.53;4998183;28;45515;-52
2021/12/11 04:10:04;;;;;;;;;4.00;0.80;;;;;5.64;67.91;100830.66;4997651;28;46221;-51
2021/12/11 04:12:29;;;;;;;;;1.80;1.00;;;;;5.65;68.51;100835.91;5015225;28;45227;-49
2021/12/11 04:14:55;;;;;;;;;0.50;0.50;;;;;5.64;68.75;100836.09;5015356;28;45389;-51
2021/12/11 04:17:22;;;;;;;;;3.00;2.00;;;;;5.63;68.19;100840.72;5015678;28;45457;-54
2021/12/11 04:19:49;;;;;;;;;3.60;3.60;;;;;5.64;68.81;100847.84;5015058;28;45488;-53
2021/12/11 04:22:14;;;;;;;;;1.00;1.00;;;;;5.62;68.32;100840.88;4997396;28;45397;-54
2021/12/11 04:24:41;;;;;;;;;1.75;0.75;;;;;5.57;68.98;100844.13;5014308;28;45305;-49
2021/12/11 04:27:07;;;;;;;;;2.20;1.00;;;;;5.51;68.79;100832.06;5015015;28;45596;-52
2021/12/11 04:29:33;;;;;;;;;1.00;1.00;;;;;5.51;68.64;100842.94;5014903;28;46488;-49
2021/12/11 04:32:01;;;;;;;;;1.75;0.50;;;;;5.52;69.06;100841.94;5015011;28;45340;-49
2021/12/11 04:34:26;;;;;;;;;1.80;1.80;;;;;4.98;68.90;100770.00;5015115;28;45410;-49
2021/12/11 04:37:03;;;;;;;;;4.50;1.75;;;;;5.50;68.66;100854.03;5015274;28;45832;-48
2021/12/11 04:39:34;;;;;;;;;3.00;1.60;;;;;5.43;68.31;100848.44;5014764;28;46159;-49
2021/12/11 04:42:07;;;;;;;;;4.60;2.00;;;;;5.41;68.48;100853.22;5014836;28;45424;-48
2021/12/11 04:44:38;;;;;;;;;1.00;1.00;;;;;5.46;68.94;100863.56;4997754;28;45400;-53
2021/12/11 04:47:11;;;;;;;;;2.60;2.60;;;;;5.51;68.75;100883.78;5014823;28;45573;-49
2021/12/11 04:49:45;;;;;;;;;2.00;1.00;;;;;5.49;68.88;100879.56;5014958;28;46499;-54
2021/12/11 04:52:18;;;;;;;;;4.00;2.00;;;;;5.25;68.61;100851.38;5014644;28;45339;-49
2021/12/11 04:58:02;;;;;;;;;1.20;1.00;;;;;5.47;68.69;100887.91;5014743;28;45470;-52
2021/12/11 05:06:40;;;;;;;;;1.00;1.00;;;;;5.48;69.09;100886.00;5018157;28;45439;-51
2021/12/11 05:09:15;;;;;;;;;4.00;2.00;;;;;5.48;68.92;100891.44;5017759;28;45349;-51
2021/12/11 05:11:47;;;;;;;;;1.00;1.00;;;;;5.45;69.18;100884.50;5017948;28;46702;-52
2021/12/11 05:14:14;;;;;;;;;4.20;2.00;;;;;5.45;69.55;100883.66;5017673;28;45411;-53
2021/12/11 05:16:40;;;;;;;;;2.20;1.00;;;;;5.45;68.92;100900.84;5018114;28;45446;-53
2021/12/11 05:19:05;;;;;;;;;1.00;1.00;;;;;5.47;69.27;100887.91;5018372;28;45503;-54
2021/12/11 05:21:31;;;;;;;;;4.50;1.75;;;;;5.45;68.68;100887.25;5017457;28;45880;-52
2021/12/11 05:23:56;;;;;;;;;2.00;2.00;;;;;5.41;69.41;100891.31;5017005;28;45369;-49
2021/12/11 05:26:22;;;;;;;;;2.00;2.00;;;;;5.42;69.08;100896.59;5017682;28;45285;-52
2021/12/11 05:28:48;;;;;;;;;2.50;0.25;;;;;5.26;68.89;100867.53;5018404;28;45121;-49
2021/12/11 05:31:13;;;;;;;;;3.00;2.00;;;;;5.27;68.82;100874.69;5016313;28;47309;-47
2021/12/11 05:33:39;;;;;;;;;1.00;1.00;;;;;5.08;68.80;100853.28;5000141;28;45816;-53
2021/12/11 05:36:06;;;;;;;;;2.00;1.00;;;;;5.43;69.18;100917.34;5018135;28;45481;-54
2021/12/11 05:38:32;;;;;;;;;2.40;1.20;;;;;5.12;68.92;100874.53;5000015;28;45622;-53
2021/12/11 05:41:01;;;;;;;;;2.80;2.80;;;;;5.42;69.27;100940.16;4983991;28;46291;-53
2021/12/11 05:43:26;;;;;;;;;4.40;2.00;;;;;5.38;69.30;100938.78;5017760;28;45292;-48
2021/12/11 05:45:52;;;;;;;;;3.00;3.00;;;;;5.27;68.60;100917.38;4999498;28;45391;-50
2021/12/11 05:48:17;;;;;;;;;2.00;2.00;;;;;5.40;68.55;100941.34;5017896;28;45516;-53
2021/12/11 05:50:53;;;;;;;;;5.75;3.50;;;;;5.39;69.15;100945.09;4999314;28;47446;-51
2021/12/11 05:53:19;;;;;;;;;5.00;1.40;;;;;5.22;69.22;100934.22;5000303;28;45281;-54
2021/12/11 05:55:46;;;;;;;;;6.80;4.80;;;;;5.31;69.66;100961.41;5017288;28;45489;-49
2021/12/11 05:58:14;;;;;;;;;2.40;2.00;;;;;5.15;68.81;100944.09;5017656;28;45656;-50
2021/12/11 06:00:45;;;;;;;;;1.20;1.00;;;;;5.29;68.84;100977.94;5016715;28;46618;-52
2021/12/11 06:03:10;;;;;;;;;3.00;2.00;;;;;5.28;69.32;100987.09;5016768;28;45484;-55
2021/12/11 06:05:36;;;;;;;;;1.00;1.00;;;;;5.18;68.98;100998.16;5017098;28;45315;-53
2021/12/11 06:08:03;;;;;;;;;4.75;2.50;;;;;5.13;69.56;101003.28;5017363;28;45736;-49
2021/12/11 06:10:28;;;;;;;;;7.60;2.80;;;;;5.11;68.91;101000.72;4999004;28;46652;-50
2021/12/11 06:12:55;;;;;;;;;4.50;4.00;;;;;5.01;69.21;101008.19;5016839;28;46032;-50
2021/12/11 06:15:21;;;;;;;;;4.20;2.00;;;;;4.95;69.60;101006.13;4999646;28;45391;-54
2021/12/11 06:17:47;;;;;;;;;6.00;2.50;;;;;4.89;69.77;100999.50;4987531;28;45250;-51
2021/12/11 06:20:15;;;;;;;;;4.75;1.75;;;;;4.88;69.78;101009.56;5013243;28;46059;-54
2021/12/11 06:22:41;;;;;;;;;4.60;1.00;;;;;4.90;69.98;101011.25;5015157;28;45528;-54
2021/12/11 06:25:10;;;;;;;;;1.75;1.75;;;;;4.77;69.60;101001.72;4999479;28;45440;-50
2021/12/11 06:27:36;;;;;;;;;7.00;2.00;;;;;4.74;69.35;100997.47;4999247;28;45582;-53
2021/12/11 06:30:03;;;;;;;;;5.00;5.00;;;;;4.64;70.28;100991.31;5016558;28;46296;-49
2021/12/11 06:32:29;;;;;;;;;6.40;5.20;;;;;4.84;70.23;101008.19;5016490;28;45533;-52
2021/12/11 06:34:55;;;;;;;;;8.75;6.00;;;;;4.83;69.62;101020.09;5016596;28;45401;-54
2021/12/11 06:37:21;;;;;;;;;5.00;4.00;;;;;4.83;69.35;101021.94;5016592;28;45457;-54
2021/12/11 06:39:47;;;;;;;;;6.60;4.00;;;;;4.74;70.21;101013.78;5016465;28;45470;-55
2021/12/11 06:42:13;;;;;;;;;5.60;3.60;;;;;4.78;69.79;101027.88;5016344;28;45513;-49
2021/12/11 06:44:38;;;;;;;;;6.00;5.25;;;;;4.57;70.03;100988.41;4998912;28;45395;-52
2021/12/11 06:47:07;;;;;;;;;5.00;5.00;;;;;4.85;69.59;101036.22;4998358;28;45409;-53
2021/12/11 06:49:34;;;;;;;;;4.40;4.20;;;;;4.64;69.65;101015.78;5014985;28;47199;-53
2021/12/11 06:52:00;;;;;;;;;7.60;2.80;;;;;4.81;70.51;101053.91;5015173;28;45364;-57
2021/12/11 06:54:25;;;;;;;;;4.75;4.75;;;;;4.74;70.00;101048.25;4998559;28;45439;-55
2021/12/11 06:56:51;;;;;;;;;5.00;4.00;;;;;4.78;69.88;101062.38;5014953;28;45584;-54
2021/12/11 06:59:17;;;;;;;;;4.25;4.00;;;;;4.82;69.80;101069.19;5015902;28;45462;-54
2021/12/11 07:01:43;;;;;;;;;3.00;3.00;;;;;4.82;70.39;101069.19;5016494;28;45369;-51
2021/12/11 07:04:09;;;;;;;;;5.50;4.00;;;;;4.84;70.25;101073.47;4998844;28;45367;-56
2021/12/11 07:06:36;;;;;;;;;5.20;5.20;;;;;4.81;69.86;101068.34;4998997;28;45287;-51
2021/12/11 07:09:04;;;;;;;;;7.60;5.60;;;;;4.88;69.39;101088.44;5014523;28;46458;-55
2021/12/11 07:11:30;;;;;;;;;6.00;5.80;;;;;4.85;69.99;101077.88;4998140;28;45476;-51
2021/12/11 07:13:56;;;;;;;;;6.25;4.75;;;;;4.86;69.62;101081.47;4998259;28;45469;-55
2021/12/11 07:16:21;;;;;;;;;6.25;3.50;;;;;4.93;69.63;101100.69;5016071;28;45355;-53
2021/12/11 07:18:47;;;;;;;;;7.25;4.50;;;;;4.85;69.68;101106.94;5016039;28;46465;-51
2021/12/11 07:21:13;;;;;;;;;9.25;4.75;;;;;4.60;70.16;101083.22;5014661;28;45734;-50
2021/12/11 07:23:41;;;;;;;;;5.75;4.00;;;;;4.74;70.13;101114.41;5015952;28;45381;-47
2021/12/11 07:26:16;;;;;;;;;4.60;2.80;;;;;4.67;70.66;101110.63;5016001;28;45625;-49
2021/12/11 07:28:43;;;;;;;;;4.00;4.00;;;;;4.77;70.03;101124.09;5015334;28;45352;-51
2021/12/11 07:31:09;;;;;;;;;7.40;5.00;;;;;4.77;70.34;101106.91;5015551;28;45276;-50
2021/12/11 07:33:34;;;;;;;;;5.00;5.00;;;;;4.72;70.23;101116.44;4997861;28;45444;-54
2021/12/11 07:36:00;;;;;;;;;5.25;5.25;;;;;4.69;70.14;101127.63;5015874;28;45453;-50
2021/12/11 07:38:26;;;;;;;;;6.00;6.00;;;;;4.63;71.02;101122.00;4997460;28;45583;-51
2021/12/11 07:40:54;;;;;;;;;3.50;3.50;;;;;4.62;71.08;101129.28;5015705;28;45465;-54
2021/12/11 07:43:23;;;;;;;;;5.00;5.00;;;;;4.69;71.05;101132.22;5015347;28;45374;-53
2021/12/11 07:45:48;;;;;;;;;4.80;4.80;;;;;4.69;71.09;101145.84;5015698;28;45623;-54
2021/12/11 07:48:14;;;;;;;;;7.50;6.25;;;;;4.50;70.39;101120.59;5015535;28;45517;-51
2021/12/11 07:50:40;;;;;;;;;5.75;4.75;;;;;4.70;71.23;101161.97;5015692;28;45347;-49
2021/12/11 07:53:05;;;;;;;;;6.25;5.00;;;;;4.71;70.02;101170.97;4987330;28;45404;-49
2021/12/11 07:55:32;;;;;;;;;7.75;4.75;;;;;4.77;70.88;101174.91;5005865;28;45538;-53
2021/12/11 07:57:59;;;;;;;;;4.40;4.40;;;;;4.82;70.66;101169.84;4998014;28;46976;-54
2021/12/11 08:00:26;;;;;;;;;9.60;5.00;;;;;4.86;70.63;101168.50;5014848;28;45217;-52
2021/12/11 08:02:51;;;;;;;;;6.40;5.00;;;;;4.74;70.29;101140.72;5015682;28;45231;-50
2021/12/11 08:05:20;;;;;;;;;5.00;5.00;;;;;4.90;70.09;101164.41;4998217;28;45534;-50
2021/12/11 08:07:45;;;;;;;;;9.00;5.00;;;;;4.97;69.70;101183.69;5015418;28;45749;-50
2021/12/11 08:10:14;;;;;;;;;5.25;4.00;;;;;4.98;70.18;101188.97;5015583;28;45432;-48
2021/12/11 08:12:40;;;;;;;;;9.60;8.00;;;;;4.95;69.63;101194.72;5012761;28;45426;-56
2021/12/11 08:15:07;;;;;;;;;6.60;5.00;;;;;4.98;69.78;101198.97;4996122;28;45403;-52
2021/12/11 08:17:32;;;;;;;;;7.60;3.60;;;;;5.00;70.41;101205.09;5012956;28;46424;-51
2021/12/11 08:19:58;;;;;;;;;6.00;4.25;;;;;5.00;69.79;101205.97;5015040;28;45702;-53
2021/12/11 08:22:23;;;;;;;;;14.00;6.00;;;;;4.84;69.84;101182.25;4981105;28;45354;-49
2021/12/11 08:24:49;;;;;;;;;8.50;5.00;;;;;4.75;69.70;101175.06;4997349;28;45264;-53
2021/12/11 08:27:17;;;;;;;;;6.00;4.80;;;;;4.87;69.64;101184.63;4997530;28;48222;-51
2021/12/11 08:29:45;;;;;;;;;4.60;4.00;;;;;4.98;69.62;101210.72;5015016;28;45411;-53
2021/12/11 08:32:10;;;;;;;;;6.40;6.40;;;;;4.95;70.21;101215.63;4981264;28;45323;-55
2021/12/11 08:34:36;;;;;;;;;5.00;5.00;;;;;4.99;70.20;101222.44;5014413;28;45351;-53
2021/12/11 08:37:03;;;;;;;;;3.25;1.25;;;;;5.12;70.43;101227.44;4997121;28;46236;-52
2021/12/11 08:39:29;;;;;;;;;4.00;4.00;;;;;5.20;70.20;101224.75;4997240;28;45352;-55
2021/12/11 08:41:55;;;;;;;;;10.20;6.40;;;;;5.05;68.86;101169.22;5015116;28;45363;-56
2021/12/11 08:44:22;;;;;;;;;7.80;5.00;;;;;5.43;68.73;101215.97;4990631;28;45661;-56
2021/12/11 08:46:54;;;;;;;;;6.40;4.80;;;;;5.49;69.23;101206.28;5026250;28;46231;-54
2021/12/11 08:49:27;;;;;;;;;8.60;5.00;;;;;5.63;69.08;101221.09;5010739;28;45449;-54
2021/12/11 08:51:56;;;;;;;;;5.80;4.40;;;;;5.68;68.23;101219.59;4977336;28;45489;-55
2021/12/11 08:54:25;;;;;;;;;5.00;4.60;;;;;5.73;68.94;101227.25;5011018;28;46101;-54
2021/12/11 08:56:51;;;;;;;;;5.40;5.40;;;;;5.78;68.23;101235.78;5010468;28;46588;-54
2021/12/11 08:59:18;;;;;;;;;11.00;7.80;;;;;5.80;68.12;101241.91;5009374;28;45520;-54
2021/12/11 09:01:55;;;;;;;;;9.20;5.80;;;;;5.81;68.51;101240.88;5010494;28;45807;-55
2021/12/11 09:04:36;;;;;;;;;5.80;2.80;;;;;5.88;67.52;101242.94;4976270;28;45931;-48
2021/12/11 09:07:08;;;;;;;;;5.40;2.40;;;;;5.75;67.32;101240.69;4992114;28;47933;-53
2021/12/11 09:09:39;;;;;;;;;6.80;6.80;;;;;5.84;67.89;101248.72;4992669;28;45522;-54
2021/12/11 09:12:26;;;;;;;;;5.80;4.00;;;;;5.39;67.70;101168.31;4992261;28;45509;-48
2021/12/11 09:14:53;;;;;;;;;8.60;6.40;;;;;5.89;67.17;101247.38;4993994;28;45525;-54
2021/12/11 09:17:29;;;;;;;;;9.00;5.40;;;;;5.93;68.11;101251.47;4995286;28;46567;-51
2021/12/11 09:20:12;;;;;;;;;8.40;6.80;;;;;6.00;67.29;101267.97;5010262;28;45486;-56
2021/12/11 09:23:02;;;;;;;;;8.60;5.00;;;;;6.00;67.77;101271.56;4994344;28;45865;-50
2021/12/11 09:25:42;;;;;;;;;8.80;5.80;;;;;6.02;67.55;101285.91;4995010;28;45626;-53
2021/12/11 09:28:32;;;;;;;;;5.40;5.40;;;;;6.04;67.45;101292.03;4991696;28;46782;-53
2021/12/11 09:31:04;;;;;;;;;6.40;5.00;;;;;5.86;68.02;101259.44;4990525;28;45412;-51
2021/12/11 09:33:34;;;;;;;;;8.80;8.20;;;;;6.10;66.81;101304.97;5010257;28;45429;-51
2021/12/11 09:36:07;;;;;;;;;6.80;5.80;;;;;6.13;67.79;101303.78;4990900;28;45398;-51
2021/12/11 09:38:36;;;;;;;;;9.40;4.40;;;;;6.19;67.45;101310.47;5009861;28;46526;-53
2021/12/11 09:41:19;;;;;;;;;9.20;8.00;;;;;6.21;67.50;101319.31;4990215;28;45522;-52
2021/12/11 09:44:07;;;;;;;;;8.40;4.60;;;;;6.21;66.71;101319.31;5009402;28;45700;-54
2021/12/11 09:46:42;;;;;;;;;8.60;7.40;;;;;6.22;66.51;101318.28;4978083;28;45520;-53
2021/12/11 09:49:09;;;;;;;;;8.40;5.40;;;;;6.13;67.12;101297.50;5009121;28;45745;-53
2021/12/11 09:51:38;;;;;;;;;9.80;9.60;;;;;6.33;66.82;101317.09;5011955;28;45477;-52
2021/12/11 09:54:08;;;;;;;;;6.00;4.60;;;;;6.39;66.95;101327.34;5013333;28;45773;-55
2021/12/11 09:56:39;;;;;;;;;6.00;3.80;;;;;6.41;66.36;101314.38;5011873;28;45782;-54
2021/12/11 09:59:07;;;;;;;;;6.00;6.00;;;;;6.48;66.32;101326.31;5011578;28;46180;-54
2021/12/11 10:01:35;;;;;;;;;4.60;3.80;;;;;6.49;66.14;101335.34;5011775;28;45489;-54
2021/12/11 10:04:06;;;;;;;;;7.20;4.80;;;;;6.52;66.82;101340.47;5013014;28;45346;-51
2021/12/11 10:06:52;;;;;;;;;9.00;6.00;;;;;6.59;66.97;101340.63;5012005;28;45764;-52
2021/12/11 10:09:25;;;;;;;;;5.80;5.00;;;;;6.62;66.13;101345.75;4996590;28;45847;-51
2021/12/11 10:11:55;;;;;;;;;8.00;6.40;;;;;6.66;66.28;101347.09;4985402;28;45791;-52
2021/12/11 10:14:25;;;;;;;;;5.40;5.20;;;;;6.71;66.30;101344.72;4992234;28;45511;-52
2021/12/11 10:16:53;;;;;;;;;4.20;3.40;;;;;6.76;65.56;101352.38;4970769;28;45516;-54
2021/12/11 10:19:19;;;;;;;;;5.40;3.60;;;;;6.55;65.27;101331.09;5010470;28;46223;-54
2021/12/11 10:21:51;;;;;;;;;6.00;5.00;;;;;6.62;65.83;101345.75;5012189;28;45447;-53
2021/12/11 10:24:21;;;;;;;;;4.40;2.00;;;;;6.65;65.47;101348.13;5005676;28;45946;-53
2021/12/11 10:26:47;;;;;;;;;5.40;4.20;;;;;6.50;65.93;101312.50;5011474;28;45508;-51
2021/12/11 10:29:14;;;;;;;;;3.40;2.80;;;;;6.77;65.22;101344.03;5012078;28;45447;-50
2021/12/11 10:31:42;;;;;;;;;5.00;2.60;;;;;6.85;65.83;101351.38;5011413;28;45466;-52
2021/12/11 10:34:11;;;;;;;;;5.60;3.00;;;;;6.90;65.92;101345.38;4992812;28;45538;-53
2021/12/11 10:36:46;;;;;;;;;11.40;6.00;;;;;6.92;65.14;101348.78;5011333;28;45330;-53
2021/12/11 10:39:15;;;;;;;;;5.60;3.80;;;;;6.99;65.49;101351.69;4994120;28;45443;-48
2021/12/11 10:41:41;;;;;;;;;5.75;4.00;;;;;6.99;65.07;101348.97;4989238;28;46135;-51
2021/12/11 10:44:13;;;;;;;;;7.20;5.00;;;;;7.11;65.25;101350.31;4974483;28;45584;-56
2021/12/11 10:47:01;;;;;;;;;9.40;6.60;;;;;7.15;65.11;101354.38;4989862;28;45789;-51
2021/12/11 10:49:28;;;;;;;;;7.80;5.80;;;;;7.25;64.72;101358.81;4997013;28;45969;-49
2021/12/11 10:51:58;;;;;;;;;5.00;5.00;;;;;7.33;64.55;101364.25;4992542;28;45651;-53
2021/12/11 10:54:24;;;;;;;;;7.20;4.20;;;;;7.44;64.11;101358.41;4994007;28;45761;-50
2021/12/11 10:56:51;;;;;;;;;6.80;3.00;;;;;7.53;63.90;101370.13;5010899;28;45548;-50
2021/12/11 10:59:20;;;;;;;;;4.00;4.00;;;;;7.65;63.54;101369.75;5011481;28;45921;-52
2021/12/11 11:01:51;;;;;;;;;2.60;2.60;;;;;7.63;63.15;101363.63;5009344;28;45869;-49
2021/12/11 11:04:23;;;;;;;;;6.00;5.60;;;;;7.52;63.82;101324.72;4991463;28;45437;-56
2021/12/11 11:06:49;;;;;;;;;4.20;4.20;;;;;7.90;62.69;101364.19;4977890;28;45509;-54
2021/12/11 11:09:16;;;;;;;;;9.50;5.50;;;;;7.58;61.98;101323.19;5008260;28;46357;-56
2021/12/11 11:11:42;;;;;;;;;6.60;5.80;;;;;7.92;63.03;101356.63;4993685;28;45498;-57
2021/12/11 11:14:08;;;;;;;;;24.80;19.40;;;;;8.10;62.46;101367.28;5010864;28;45650;-56
2021/12/11 11:16:35;;;;;;;;;10.00;5.60;;;;;8.28;62.00;101361.56;4971555;28;45700;-53
2021/12/11 11:19:01;;;;;;;;;8.20;4.60;;;;;8.44;62.15;101374.28;4992063;28;45763;-55
2021/12/11 11:21:35;;;;;;;;;8.20;6.20;;;;;8.39;61.45;101366.59;4992219;28;45410;-51
2021/12/11 11:24:04;;;;;;;;;8.80;6.00;;;;;8.20;61.60;101336.97;4985991;28;45721;-57
2021/12/11 11:26:33;;;;;;;;;3.00;3.00;;;;;8.41;61.63;101358.22;5006217;28;45375;-54
2021/12/11 11:28:59;;;;;;;;;10.00;9.00;;;;;8.54;61.68;101352.19;5010539;28;45510;-56
2021/12/11 11:31:28;;;;;;;;;7.20;7.20;;;;;8.79;61.37;101358.28;5009437;28;45799;-53
2021/12/11 11:33:54;;;;;;;;;9.40;6.20;;;;;8.87;60.50;101362.84;4991005;28;45650;-59
2021/12/11 11:36:22;;;;;;;;;8.25;3.50;;;;;8.57;61.06;101343.59;4991846;28;45746;-55
2021/12/11 11:41:46;;;;;;;;;5.60;5.40;;;;;8.31;62.22;101372.13;4962759;28;45553;-54
2021/12/11 11:44:12;;;;;;;;;6.60;4.20;;;;;8.18;62.10;101369.13;5003433;28;45583;-58
2021/12/11 11:46:38;;;;;;;;;5.40;3.80;;;;;8.11;62.46;101366.28;4992977;28;45377;-56
2021/12/11 11:49:04;;;;;;;;;5.80;5.80;;;;;8.05;62.81;101376.03;4991510;28;46146;-51
2021/12/11 11:51:33;;;;;;;;;10.80;7.20;;;;;7.91;62.54;101372.22;4992977;28;45448;-56
2021/12/11 11:53:58;;;;;;;;;4.60;4.60;;;;;7.92;63.09;101378.50;4992780;28;45600;-50
2021/12/11 11:56:28;;;;;;;;;5.00;2.00;;;;;7.90;63.22;101377.84;5010820;28;45827;-54